createdAt,value
2018-09-25T00:00:56.092Z,103323.40
2018-09-25T00:03:29.802Z,103325.25
2018-09-25T00:06:03.349Z,103329.63
2018-09-25T00:08:37.064Z,103332.09
2018-09-25T00:11:12.696Z,103331.03
2018-09-25T00:13:46.152Z,103329.94
2018-09-25T00:16:19.844Z,103339.80
2018-09-25T00:18:53.513Z,103330.47
2018-09-25T00:21:27.382Z,103335.30
2018-09-25T00:24:00.792Z,103331.25
2018-09-25T00:26:34.512Z,103332.66
2018-09-25T00:29:07.933Z,103331.95
2018-09-25T00:31:41.649Z,103335.77
2018-09-25T00:34:15.298Z,103333.73
2018-09-25T00:36:48.860Z,103337.45
2018-09-25T00:39:22.633Z,103334.38
2018-09-25T00:41:56.270Z,103340.00
2018-09-25T00:44:29.698Z,103335.69
2018-09-25T00:47:03.563Z,103341.03
2018-09-25T00:49:37.076Z,103346.30
2018-09-25T00:52:10.629Z,103349.88
2018-09-25T00:54:44.193Z,103352.13
2018-09-25T00:57:17.698Z,103355.05
2018-09-25T00:59:51.272Z,103356.20
2018-09-25T01:02:24.872Z,103355.54
2018-09-25T01:04:58.329Z,103363.72
2018-09-25T01:07:31.944Z,103365.80
2018-09-25T01:10:11.916Z,103365.87
2018-09-25T01:12:45.668Z,103379.81
2018-09-25T01:15:19.096Z,103383.27
2018-09-25T01:17:52.556Z,103382.87
2018-09-25T01:20:26.240Z,103386.02
2018-09-25T01:23:00.013Z,103378.91
2018-09-25T01:25:33.450Z,103383.45
2018-09-25T01:28:07.036Z,103391.78
2018-09-25T01:30:40.662Z,103393.34
2018-09-25T01:33:14.172Z,103394.34
2018-09-25T01:35:47.893Z,103392.99
2018-09-25T01:38:21.634Z,103396.52
2018-09-25T01:40:55.301Z,103396.61
2018-09-25T01:43:28.927Z,103393.04
2018-09-25T01:46:02.667Z,103393.04
2018-09-25T01:48:36.540Z,103399.72
2018-09-25T01:51:10.025Z,103400.41
2018-09-25T01:53:43.742Z,103398.01
2018-09-25T01:56:17.433Z,103397.20
2018-09-25T01:58:51.258Z,103394.30
2018-09-25T02:01:24.749Z,103396.45
2018-09-25T02:03:58.433Z,103400.11
2018-09-25T02:06:37.804Z,103397.36
2018-09-25T02:09:12.015Z,103403.22
2018-09-25T02:11:45.746Z,103409.09
2018-09-25T02:14:19.347Z,103408.22
2018-09-25T02:16:52.808Z,103413.00
2018-09-25T02:19:26.576Z,103402.32
2018-09-25T02:22:00.088Z,103417.14
2018-09-25T02:24:33.565Z,103419.53
2018-09-25T02:27:07.021Z,103416.80
2018-09-25T02:29:40.769Z,103416.77
2018-09-25T02:32:14.237Z,103421.70
2018-09-25T02:34:47.733Z,103423.63
2018-09-25T02:37:21.195Z,103428.42
2018-09-25T02:39:54.992Z,103427.23
2018-09-25T02:42:28.505Z,103431.75
2018-09-25T02:45:01.994Z,103433.55
2018-09-25T02:47:35.668Z,103439.52
2018-09-25T02:50:10.432Z,103446.84
2018-09-25T02:52:43.872Z,103447.56
2018-09-25T02:55:17.633Z,103449.94
2018-09-25T02:57:51.065Z,103451.56
2018-09-25T03:00:24.800Z,103456.05
2018-09-25T03:02:58.489Z,103459.27
2018-09-25T03:05:31.976Z,103460.58
2018-09-25T03:08:05.402Z,103462.86
2018-09-25T03:10:38.825Z,103462.82
2018-09-25T03:13:12.521Z,103468.67
2018-09-25T03:15:46.236Z,103461.52
2018-09-25T03:18:19.999Z,103468.70
2018-09-25T03:20:53.748Z,103467.50
2018-09-25T03:23:28.442Z,103466.56
2018-09-25T03:26:01.905Z,103459.19
2018-09-25T03:28:35.648Z,103468.48
2018-09-25T03:31:09.398Z,103472.40
2018-09-25T03:33:43.040Z,103473.66
2018-09-25T03:36:16.935Z,103475.81
2018-09-25T03:38:50.545Z,103484.03
2018-09-25T03:41:24.074Z,103488.47
2018-09-25T03:43:57.533Z,103486.80
2018-09-25T03:46:31.356Z,103480.62
2018-09-25T03:49:04.812Z,103487.48
2018-09-25T03:51:39.016Z,103487.44
2018-09-25T03:54:12.556Z,103487.89
2018-09-25T03:56:46.050Z,103483.50
2018-09-25T03:59:19.812Z,103483.17
2018-09-25T04:01:53.324Z,103488.34
2018-09-25T04:04:27.044Z,103490.09
2018-09-25T04:07:00.693Z,103498.00
2018-09-25T04:09:34.436Z,103499.66
2018-09-25T04:12:08.176Z,103498.50
2018-09-25T04:14:41.572Z,103503.25
2018-09-25T04:17:15.232Z,103509.55
2018-09-25T04:19:48.700Z,103518.03
2018-09-25T04:22:22.184Z,103511.97
2018-09-25T04:24:55.608Z,103516.87
2018-09-25T04:27:29.372Z,103527.56
2018-09-25T04:30:02.805Z,103530.66
2018-09-25T04:32:36.305Z,103534.08
2018-09-25T04:35:10.082Z,103534.08
2018-09-25T04:37:43.675Z,103536.32
2018-09-25T04:40:17.400Z,103533.62
2018-09-25T04:42:51.176Z,103538.75
2018-09-25T04:45:24.910Z,103538.26
2018-09-25T04:47:58.418Z,103542.66
2018-09-25T04:50:32.140Z,103543.47
2018-09-25T04:53:05.828Z,103554.66
2018-09-25T04:55:39.547Z,103550.43
2018-09-25T04:58:13.067Z,103557.63
2018-09-25T05:00:46.703Z,103549.13
2018-09-25T05:03:20.351Z,103549.13
2018-09-25T05:05:54.043Z,103549.03
2018-09-25T05:08:27.627Z,103545.90
2018-09-25T05:11:01.027Z,103547.29
2018-09-25T05:13:34.716Z,103549.67
2018-09-25T05:16:09.139Z,103554.38
2018-09-25T05:18:42.942Z,103555.29
2018-09-25T05:21:16.380Z,103560.23
2018-09-25T05:23:49.986Z,103563.28
2018-09-25T05:26:23.743Z,103568.81
2018-09-25T05:28:57.469Z,103571.20
2018-09-25T05:31:31.148Z,103565.20
2018-09-25T05:34:04.891Z,103559.45
2018-09-25T05:36:38.584Z,103563.91
2018-09-25T05:39:13.960Z,103559.29
2018-09-25T05:41:48.425Z,103566.36
2018-09-25T05:44:21.925Z,103560.78
2018-09-25T05:46:55.432Z,103567.35
2018-09-25T05:49:29.149Z,103570.67
2018-09-25T05:52:02.689Z,103573.33
2018-09-25T05:54:37.065Z,103571.88
2018-09-25T05:57:10.580Z,103576.91
2018-09-25T05:59:44.037Z,103579.31
2018-09-25T06:02:17.425Z,103588.87
2018-09-25T06:04:51.204Z,103594.09
2018-09-25T06:07:25.012Z,103594.07
2018-09-25T06:09:58.878Z,103599.20
2018-09-25T06:12:32.499Z,103595.13
2018-09-25T06:15:06.204Z,103603.97
2018-09-25T06:17:40.884Z,103608.02
2018-09-25T06:20:14.261Z,103600.02
2018-09-25T06:22:47.995Z,103602.44
2018-09-25T06:25:21.669Z,103596.59
2018-09-25T06:27:55.133Z,103598.05
2018-09-25T06:30:28.791Z,103609.47
2018-09-25T06:33:02.545Z,103615.03
2018-09-25T06:35:36.008Z,103617.09
2018-09-25T06:38:09.477Z,103615.34
2018-09-25T06:40:44.113Z,103616.98
2018-09-25T06:43:17.812Z,103619.31
2018-09-25T06:45:51.285Z,103620.30
2018-09-25T06:48:24.853Z,103627.84
2018-09-25T06:50:58.502Z,103633.80
2018-09-25T06:53:31.958Z,103631.97
2018-09-25T06:56:05.460Z,103633.73
2018-09-25T06:58:39.216Z,103633.14
2018-09-25T07:01:12.957Z,103639.50
2018-09-25T07:03:46.435Z,103640.26
2018-09-25T07:06:20.001Z,103643.26
2018-09-25T07:08:53.668Z,103648.38
2018-09-25T07:11:27.344Z,103649.36
2018-09-25T07:14:01.033Z,103650.93
2018-09-25T07:16:34.502Z,103654.87
2018-09-25T07:19:08.341Z,103659.95
2018-09-25T07:21:42.065Z,103657.84
2018-09-25T07:24:15.781Z,103662.91
2018-09-25T07:26:49.432Z,103660.52
2018-09-25T07:29:23.209Z,103663.13
2018-09-25T07:31:56.928Z,103658.83
2018-09-25T07:34:30.487Z,103662.39
2018-09-25T07:37:04.124Z,103667.61
2018-09-25T07:39:37.882Z,103672.08
2018-09-25T07:42:11.653Z,103664.50
2018-09-25T07:44:45.128Z,103679.91
2018-09-25T07:47:18.722Z,103682.76
2018-09-25T07:49:52.176Z,103678.70
2018-09-25T07:52:25.752Z,103684.50
2018-09-25T07:54:59.360Z,103694.05
2018-09-25T07:57:32.842Z,103693.05
2018-09-25T08:00:06.371Z,103694.67
2018-09-25T08:02:39.920Z,103690.56
2018-09-25T08:05:13.661Z,103703.56
2018-09-25T08:07:47.360Z,103717.06
2018-09-25T08:10:21.051Z,103721.02
2018-09-25T08:12:54.496Z,103718.21
2018-09-25T08:15:28.060Z,103718.25
2018-09-25T08:18:01.453Z,103719.31
2018-09-25T08:20:35.172Z,103724.59
2018-09-25T08:23:08.588Z,103728.63
2018-09-25T08:25:42.349Z,103731.53
2018-09-25T08:28:16.277Z,103730.48
2018-09-25T08:30:49.752Z,103729.66
2018-09-25T08:33:23.560Z,103731.69
2018-09-25T08:35:57.301Z,103733.48
2018-09-25T08:38:31.086Z,103738.47
2018-09-25T08:41:04.820Z,103739.25
2018-09-25T08:43:38.565Z,103742.17
2018-09-25T08:46:12.654Z,103743.97
2018-09-25T08:48:46.080Z,103747.67
2018-09-25T08:51:19.713Z,103747.69
2018-09-25T08:53:53.249Z,103738.75
2018-09-25T08:56:26.752Z,103738.20
2018-09-25T08:59:00.492Z,103744.87
2018-09-25T09:01:33.984Z,103750.59
2018-09-25T09:04:07.561Z,103748.53
2018-09-25T09:06:41.027Z,103760.27
2018-09-25T09:09:15.212Z,103758.98
2018-09-25T09:11:49.604Z,103757.84
2018-09-25T09:14:23.156Z,103747.67
2018-09-25T09:16:56.845Z,103754.69
2018-09-25T09:19:30.310Z,103765.81
2018-09-25T09:22:03.857Z,103763.13
2018-09-25T09:24:37.540Z,103759.45
2018-09-25T09:27:11.263Z,103761.09
2018-09-25T09:29:44.744Z,103760.52
2018-09-25T09:32:18.452Z,103765.09
2018-09-25T09:34:51.934Z,103771.67
2018-09-25T09:37:25.637Z,103762.92
2018-09-25T09:39:59.343Z,103753.17
2018-09-25T09:42:32.802Z,103761.71
2018-09-25T09:45:06.305Z,103764.32
2018-09-25T09:47:39.981Z,103770.53
2018-09-25T09:50:13.619Z,103768.89
2018-09-25T09:52:47.349Z,103771.70
2018-09-25T09:55:20.832Z,103778.38
2018-09-25T09:57:54.460Z,103774.03
2018-09-25T10:00:27.937Z,103774.25
2018-09-25T10:03:01.398Z,103778.11
2018-09-25T10:05:34.860Z,103772.55
2018-09-25T10:08:08.613Z,103777.84
2018-09-25T10:10:42.352Z,103778.13
2018-09-25T10:13:16.072Z,103777.22
2018-09-25T10:15:49.544Z,103783.05
2018-09-25T10:18:23.005Z,103770.94
2018-09-25T10:20:56.737Z,103780.41
2018-09-25T10:23:30.517Z,103776.04
2018-09-25T10:26:04.255Z,103779.70
2018-09-25T10:28:37.983Z,103777.30
2018-09-25T10:31:11.736Z,103784.66
2018-09-25T10:33:45.267Z,103790.86
2018-09-25T10:36:18.941Z,103782.05
2018-09-25T10:38:52.642Z,103786.73
2018-09-25T10:41:26.309Z,103773.02
2018-09-25T10:44:00.003Z,103785.05
2018-09-25T10:46:40.541Z,103782.86
2018-09-25T10:49:14.016Z,103781.64
2018-09-25T10:51:47.754Z,103780.70
2018-09-25T10:54:21.253Z,103774.59
2018-09-25T10:56:54.961Z,103772.43
2018-09-25T10:59:28.614Z,103776.97
2018-09-25T11:02:02.192Z,103765.80
2018-09-25T11:04:35.904Z,103761.44
2018-09-25T11:07:09.617Z,103763.80
2018-09-25T11:09:43.089Z,103757.20
2018-09-25T11:12:16.600Z,103767.44
2018-09-25T11:14:50.325Z,103787.80
2018-09-25T11:17:24.075Z,103769.90
2018-09-25T11:19:57.813Z,103765.17
2018-09-25T11:22:31.269Z,103767.91
2018-09-25T11:25:05.046Z,103779.77
2018-09-25T11:27:38.550Z,103774.06
2018-09-25T11:30:12.683Z,103772.37
2018-09-25T11:32:46.142Z,103774.80
2018-09-25T11:35:19.836Z,103785.01
2018-09-25T11:37:53.520Z,103768.87
2018-09-25T11:40:27.265Z,103769.23
2018-09-25T11:43:00.733Z,103767.84
2018-09-25T11:45:34.189Z,103765.89
2018-09-25T11:48:07.725Z,103761.56
2018-09-25T11:50:41.376Z,103761.54
2018-09-25T11:53:15.070Z,103757.32
2018-09-25T11:55:48.801Z,103756.06
2018-09-25T11:58:22.521Z,103768.41
2018-09-25T12:00:56.205Z,103760.55
2018-09-25T12:03:29.768Z,103755.70
2018-09-25T12:06:03.240Z,103752.34
2018-09-25T12:08:37.333Z,103749.17
2018-09-25T12:11:10.969Z,103749.58
2018-09-25T12:13:44.849Z,103748.09
2018-09-25T12:16:18.569Z,103742.02
2018-09-25T12:18:52.221Z,103739.23
2018-09-25T12:21:25.927Z,103731.65
2018-09-25T12:23:59.661Z,103746.82
2018-09-25T12:26:33.412Z,103740.73
2018-09-25T12:29:07.125Z,103746.30
2018-09-25T12:31:40.673Z,103739.91
2018-09-25T12:34:14.354Z,103738.56
2018-09-25T12:36:47.889Z,103730.20
2018-09-25T12:39:21.612Z,103721.16
2018-09-25T12:41:55.326Z,103719.56
2018-09-25T12:44:29.124Z,103726.12
2018-09-25T12:47:09.153Z,103727.36
2018-09-25T12:49:42.708Z,103715.87
2018-09-25T12:52:16.246Z,103714.29
2018-09-25T12:54:49.941Z,103717.30
2018-09-25T12:57:23.661Z,103712.52
2018-09-25T12:59:57.344Z,103720.23
2018-09-25T13:02:30.775Z,103711.35
2018-09-25T13:05:04.433Z,103713.95
2018-09-25T13:07:37.900Z,103717.54
2018-09-25T13:10:11.625Z,103713.69
2018-09-25T13:12:46.309Z,103725.69
2018-09-25T13:15:20.000Z,103723.20
2018-09-25T13:17:54.436Z,103731.98
2018-09-25T13:20:27.888Z,103724.91
2018-09-25T13:23:01.677Z,103718.65
2018-09-25T13:25:35.480Z,103717.67
2018-09-25T13:28:08.953Z,103704.36
2018-09-25T13:30:42.461Z,103703.42
2018-09-25T13:33:16.268Z,103699.23
2018-09-25T13:35:49.970Z,103703.22
2018-09-25T13:38:23.759Z,103707.94
2018-09-25T13:40:57.488Z,103701.98
2018-09-25T13:43:31.165Z,103697.53
2018-09-25T13:46:04.709Z,103699.80
2018-09-25T13:48:38.477Z,103701.02
2018-09-25T13:51:12.033Z,103700.09
2018-09-25T13:53:45.764Z,103693.87
2018-09-25T13:56:19.445Z,103693.40
2018-09-25T13:58:53.149Z,103691.22
2018-09-25T14:01:26.596Z,103698.20
2018-09-25T14:04:00.337Z,103696.34
2018-09-25T14:06:33.852Z,103692.11
2018-09-25T14:09:07.578Z,103680.61
2018-09-25T14:11:44.553Z,103673.14
2018-09-25T14:14:18.146Z,103682.47
2018-09-25T14:16:51.928Z,103684.33
2018-09-25T14:19:25.416Z,103686.60
2018-09-25T14:21:58.985Z,103693.08
2018-09-25T14:24:32.412Z,103688.88
2018-09-25T14:27:05.886Z,103698.86
2018-09-25T14:29:39.416Z,103706.64
2018-09-25T14:32:13.273Z,103695.68
2018-09-25T14:34:46.734Z,103695.50
2018-09-25T14:37:20.481Z,103696.67
2018-09-25T14:39:54.161Z,103699.12
2018-09-25T14:42:27.849Z,103712.77
2018-09-25T14:45:01.486Z,103711.46
2018-09-25T14:47:35.107Z,103723.11
2018-09-25T14:50:08.812Z,103706.79
2018-09-25T14:52:42.512Z,103709.91
2018-09-25T14:55:16.973Z,103709.41
2018-09-25T14:57:50.423Z,103704.05
2018-09-25T15:00:23.897Z,103705.80
2018-09-25T15:02:57.589Z,103698.20
2018-09-25T15:05:31.264Z,103700.11
2018-09-25T15:08:04.975Z,103694.64
2018-09-25T15:10:38.431Z,103698.98
2018-09-25T15:13:12.053Z,103693.69
2018-09-25T15:15:45.745Z,103688.73
2018-09-25T15:18:19.344Z,103688.01
2018-09-25T15:20:52.825Z,103698.69
2018-09-25T15:23:26.278Z,103697.97
2018-09-25T15:25:59.751Z,103692.39
2018-09-25T15:28:33.524Z,103690.48
2018-09-25T15:31:07.317Z,103696.42
2018-09-25T15:33:41.124Z,103675.97
2018-09-25T15:36:14.604Z,103669.63
2018-09-25T15:41:38.331Z,103663.64
2018-09-25T15:44:12.519Z,103668.65
2018-09-25T15:46:46.015Z,103665.92
2018-09-25T15:49:19.536Z,103671.13
2018-09-25T15:51:53.008Z,103679.09
2018-09-25T15:54:26.773Z,103681.97
2018-09-25T15:57:00.541Z,103680.23
2018-09-25T15:59:34.125Z,103682.53
2018-09-25T16:02:07.889Z,103684.59
2018-09-25T16:04:41.609Z,103689.20
2018-09-25T16:07:15.356Z,103694.54
2018-09-25T16:09:48.845Z,103694.27
2018-09-25T16:12:22.565Z,103689.35
2018-09-25T16:14:56.281Z,103693.45
2018-09-25T16:17:30.172Z,103699.47
2018-09-25T16:20:03.641Z,103701.12
2018-09-25T16:22:37.276Z,103701.04
2018-09-25T16:25:11.363Z,103698.38
2018-09-25T16:27:45.111Z,103686.05
2018-09-25T16:30:18.828Z,103686.13
2018-09-25T16:32:52.565Z,103682.42
2018-09-25T16:35:26.224Z,103676.52
2018-09-25T16:38:00.131Z,103672.27
2018-09-25T16:40:33.585Z,103677.84
2018-09-25T16:43:07.207Z,103673.01
2018-09-25T16:45:40.894Z,103671.02
2018-09-25T16:48:14.521Z,103664.45
2018-09-25T16:50:48.012Z,103664.31
2018-09-25T16:53:21.481Z,103663.84
2018-09-25T16:55:54.937Z,103662.46
2018-09-25T16:58:28.661Z,103650.52
2018-09-25T17:01:02.353Z,103648.19
2018-09-25T17:03:36.103Z,103645.91
2018-09-25T17:06:09.537Z,103644.37
2018-09-25T17:08:43.029Z,103642.72
2018-09-25T17:11:16.468Z,103639.23
2018-09-25T17:13:49.976Z,103638.32
2018-09-25T17:16:23.525Z,103637.14
2018-09-25T17:18:57.108Z,103630.48
2018-09-25T17:21:30.521Z,103631.63
2018-09-25T17:24:04.401Z,103633.50
2018-09-25T17:26:38.705Z,103633.33
2018-09-25T17:29:13.082Z,103624.53
2018-09-25T17:31:46.772Z,103630.56
2018-09-25T17:34:20.212Z,103637.73
2018-09-25T17:36:53.661Z,103631.49
2018-09-25T17:39:27.385Z,103632.34
2018-09-25T17:42:00.840Z,103634.96
2018-09-25T17:44:34.495Z,103634.25
2018-09-25T17:47:07.977Z,103632.94
2018-09-25T17:49:41.849Z,103641.53
2018-09-25T17:52:15.514Z,103635.95
2018-09-25T17:54:49.143Z,103630.89
2018-09-25T17:57:22.844Z,103633.91
2018-09-25T17:59:56.661Z,103628.14
2018-09-25T18:02:30.433Z,103634.11
2018-09-25T18:05:04.272Z,103642.82
2018-09-25T18:07:37.949Z,103647.27
2018-09-25T18:10:11.981Z,103645.68
2018-09-25T18:12:45.552Z,103644.13
2018-09-25T18:15:19.057Z,103645.59
2018-09-25T18:17:52.857Z,103649.35
2018-09-25T18:20:26.325Z,103649.81
2018-09-25T18:22:59.801Z,103642.34
2018-09-25T18:25:33.329Z,103640.88
2018-09-25T18:28:06.827Z,103635.78
2018-09-25T18:30:40.577Z,103636.28
2018-09-25T18:33:14.225Z,103644.14
2018-09-25T18:35:47.785Z,103641.77
2018-09-25T18:38:21.437Z,103643.16
2018-09-25T18:40:55.552Z,103639.56
2018-09-25T18:43:29.311Z,103650.06
2018-09-25T18:46:03.025Z,103642.19
2018-09-25T18:48:36.957Z,103642.23
2018-09-25T18:51:10.644Z,103639.45
2018-09-25T18:53:44.261Z,103633.81
2018-09-25T18:56:18.036Z,103633.64
2018-09-25T18:58:51.576Z,103635.06
2018-09-25T19:01:25.358Z,103634.35
2018-09-25T19:03:58.756Z,103627.19
2018-09-25T19:06:32.484Z,103625.09
2018-09-25T19:09:05.860Z,103629.28
2018-09-25T19:11:39.848Z,103623.00
2018-09-25T19:14:14.276Z,103624.45
2018-09-25T19:16:47.725Z,103623.06
2018-09-25T19:19:21.223Z,103631.13
2018-09-25T19:21:54.768Z,103627.00
2018-09-25T19:24:28.443Z,103629.02
2018-09-25T19:27:02.179Z,103631.56
2018-09-25T19:29:35.596Z,103624.27
2018-09-25T19:32:09.293Z,103635.69
2018-09-25T19:34:43.044Z,103629.27
2018-09-25T19:37:16.693Z,103626.35
2018-09-25T19:39:50.257Z,103626.09
2018-09-25T19:42:23.980Z,103621.06
2018-09-25T19:44:57.749Z,103612.91
2018-09-25T19:47:31.189Z,103609.96
2018-09-25T19:50:04.962Z,103602.02
2018-09-25T19:52:38.672Z,103589.39
2018-09-25T19:55:12.345Z,103575.55
2018-09-25T19:57:46.089Z,103591.53
2018-09-25T20:00:19.791Z,103593.59
2018-09-25T20:02:53.601Z,103599.42
2018-09-25T20:05:27.388Z,103600.61
2018-09-25T20:08:00.864Z,103592.31
2018-09-25T20:10:34.597Z,103603.48
2018-09-25T20:13:08.458Z,103603.03
2018-09-25T20:15:41.936Z,103599.23
2018-09-25T20:18:15.564Z,103590.28
2018-09-25T20:20:49.074Z,103596.67
2018-09-25T20:23:22.909Z,103591.36
2018-09-25T20:25:56.723Z,103581.23
2018-09-25T20:28:30.333Z,103592.12
2018-09-25T20:31:03.864Z,103583.00
2018-09-25T20:33:37.314Z,103571.73
2018-09-25T20:36:10.904Z,103573.77
2018-09-25T20:38:44.700Z,103570.44
2018-09-25T20:41:18.135Z,103566.59
2018-09-25T20:43:51.885Z,103574.56
2018-09-25T20:46:25.480Z,103580.52
2018-09-25T20:48:59.366Z,103575.54
2018-09-25T20:51:33.115Z,103583.30
2018-09-25T20:54:06.605Z,103561.94
2018-09-25T20:56:40.316Z,103569.05
2018-09-25T20:59:13.988Z,103547.67
2018-09-25T21:01:47.752Z,103548.27
2018-09-25T21:04:21.456Z,103540.52
2018-09-25T21:06:55.066Z,103557.78
2018-09-25T21:09:28.818Z,103547.12
2018-09-25T21:12:02.336Z,103529.41
2018-09-25T21:14:35.812Z,103535.92
2018-09-25T21:17:09.592Z,103541.82
2018-09-25T21:19:43.384Z,103549.29
2018-09-25T21:22:16.896Z,103534.61
2018-09-25T21:24:50.648Z,103544.99
2018-09-25T21:27:24.080Z,103545.69
2018-09-25T21:29:57.855Z,103549.91
2018-09-25T21:32:31.597Z,103544.41
2018-09-25T21:35:05.117Z,103545.72
2018-09-25T21:37:38.860Z,103558.14
2018-09-25T21:40:12.507Z,103550.53
2018-09-25T21:42:45.913Z,103562.20
2018-09-25T21:45:19.784Z,103559.09
2018-09-25T21:47:53.228Z,103546.50
2018-09-25T21:50:27.083Z,103532.09
2018-09-25T21:53:00.749Z,103552.04
2018-09-25T21:55:34.256Z,103540.31
2018-09-25T21:58:08.027Z,103535.56
2018-09-25T22:00:41.796Z,103530.91
2018-09-25T22:03:15.209Z,103530.16
2018-09-25T22:05:48.654Z,103512.46
2018-09-25T22:08:22.149Z,103510.98
2018-09-25T22:10:55.776Z,103510.42
2018-09-25T22:13:29.352Z,103504.98
2018-09-25T22:16:03.325Z,103499.16
2018-09-25T22:18:37.117Z,103495.73
2018-09-25T22:21:11.110Z,103494.92
2018-09-25T22:23:44.821Z,103487.08
2018-09-25T22:26:18.510Z,103486.45
2018-09-25T22:28:52.208Z,103493.46
2018-09-25T22:31:25.885Z,103490.41
2018-09-25T22:33:59.601Z,103483.61
2018-09-25T22:36:33.268Z,103502.26
2018-09-25T22:39:06.833Z,103496.80
2018-09-25T22:41:40.248Z,103489.47
2018-09-25T22:44:13.825Z,103476.89
2018-09-25T22:46:47.516Z,103480.58
2018-09-25T22:49:21.088Z,103477.52
2018-09-25T22:51:54.776Z,103469.41
2018-09-25T22:54:28.216Z,103477.80
2018-09-25T22:57:01.716Z,103470.58
2018-09-25T22:59:35.556Z,103471.17
2018-09-25T23:02:09.324Z,103454.31
2018-09-25T23:04:42.823Z,103454.02
2018-09-25T23:07:16.307Z,103447.06
2018-09-25T23:09:50.052Z,103448.25
2018-09-25T23:12:23.716Z,103444.17
2018-09-25T23:14:57.212Z,103443.07
2018-09-25T23:17:30.698Z,103435.06
2018-09-25T23:20:04.421Z,103438.72
2018-09-25T23:22:38.020Z,103437.16
2018-09-25T23:25:11.787Z,103438.93
2018-09-25T23:27:45.242Z,103435.92
2018-09-25T23:30:19.026Z,103426.59
2018-09-25T23:32:52.736Z,103424.75
2018-09-25T23:35:26.303Z,103414.73
2018-09-25T23:37:59.968Z,103416.56
2018-09-25T23:40:37.295Z,103411.36
2018-09-25T23:43:14.624Z,103399.52
2018-09-25T23:45:51.000Z,103388.75
2018-09-25T23:48:25.572Z,103397.75
2018-09-25T23:50:59.336Z,103409.34
2018-09-25T23:53:32.652Z,103399.10
2018-09-25T23:56:08.601Z,103397.30
2018-09-25T23:58:41.307Z,103395.91
